Outing, Minnesota
Current Conditions -  °F | °C
As of 9:36 PM on Sunday 23 Nov 2014 (Local Time) from KXVG Reporting Station
Overcast Overcast  
Wind Chill: 25°   Ceiling: 800
Heat Index: 32°   Visibility: 10mi
Dew Point: 30°   Wind: 8mph
Humidity: 93%   Direction: 290°WNW
Pressure: 29.38"   Gusts: NA
Location:  46.82°N, 93.95°W
Report Text: KXVG 240336Z AUTO 29007KT 10SM OVC008 00/M01 A2938 RMK AO2
Loading
Personal Weather Stations






























Interactive Weather Map New forecast layout! Learn more

10-Day Weather Forecast

Advertisements
Track Severe Weather on mobile